createdAt,value
2022-11-17T00:00:27.992Z,14.07
2022-11-17T00:02:51.750Z,16.93
2022-11-17T00:05:16.342Z,18.13
2022-11-17T00:07:39.885Z,26.23
2022-11-17T00:10:05.822Z,14.33
2022-11-17T00:12:46.480Z,17.07
2022-11-17T00:15:10.679Z,16.60
2022-11-17T00:17:34.202Z,18.13
2022-11-17T00:20:15.215Z,17.83
2022-11-17T00:22:38.962Z,19.67
2022-11-17T00:25:02.542Z,20.07
2022-11-17T00:27:27.573Z,18.47
2022-11-17T00:29:51.150Z,20.13
2022-11-17T00:32:33.103Z,17.27
2022-11-17T00:34:56.746Z,22.83
2022-11-17T00:37:20.310Z,20.23
2022-11-17T00:39:44.143Z,17.23
2022-11-17T00:42:07.722Z,19.47
2022-11-17T00:44:32.735Z,19.13
2022-11-17T00:46:56.303Z,18.00
2022-11-17T00:49:21.618Z,17.70
2022-11-17T00:51:45.187Z,18.33
2022-11-17T00:54:12.849Z,17.70
2022-11-17T00:56:36.362Z,19.33
2022-11-17T00:59:00.186Z,18.27
2022-11-17T01:01:25.256Z,18.90
2022-11-17T01:03:49.300Z,16.77
2022-11-17T01:06:15.645Z,17.83
2022-11-17T01:08:39.737Z,19.97
2022-11-17T01:11:10.730Z,19.37
2022-11-17T01:13:34.552Z,16.43
2022-11-17T01:16:03.531Z,16.53
2022-11-17T01:18:29.463Z,19.17
2022-11-17T01:20:53.022Z,18.60
2022-11-17T01:23:16.609Z,18.27
2022-11-17T01:25:40.917Z,21.67
2022-11-17T01:28:04.840Z,20.17
2022-11-17T01:30:28.424Z,18.53
2022-11-17T01:32:52.035Z,16.43
2022-11-17T01:35:17.180Z,16.63
2022-11-17T01:37:40.857Z,16.33
2022-11-17T01:40:05.112Z,19.27
2022-11-17T01:42:29.261Z,18.10
2022-11-17T01:44:59.748Z,17.07
2022-11-17T01:47:28.743Z,15.80
2022-11-17T01:49:57.145Z,20.00
2022-11-17T01:52:22.500Z,15.93
2022-11-17T01:54:49.938Z,18.73
2022-11-17T01:57:18.830Z,17.00
2022-11-17T01:59:46.552Z,15.80
2022-11-17T02:02:10.229Z,14.80
2022-11-17T02:04:36.919Z,15.67
2022-11-17T02:07:09.667Z,20.50
2022-11-17T02:09:37.486Z,16.07
2022-11-17T02:12:01.070Z,17.67
2022-11-17T02:14:24.703Z,18.17
2022-11-17T02:16:48.269Z,16.37
2022-11-17T02:19:16.565Z,14.90
2022-11-17T02:22:24.055Z,17.70
2022-11-17T02:25:16.577Z,17.23
2022-11-17T02:28:04.505Z,16.67
2022-11-17T02:30:34.942Z,15.50
2022-11-17T02:33:04.856Z,19.13
2022-11-17T02:35:37.625Z,13.30
2022-11-17T02:38:12.328Z,14.90
2022-11-17T02:40:41.382Z,17.93
2022-11-17T02:43:30.152Z,18.20
2022-11-17T02:45:58.946Z,18.83
2022-11-17T02:48:29.537Z,16.23
2022-11-17T02:50:55.706Z,19.03
2022-11-17T02:53:21.209Z,21.40
2022-11-17T02:55:51.706Z,16.10
2022-11-17T02:58:16.633Z,18.67
2022-11-17T03:00:52.992Z,15.10
2022-11-17T03:03:34.453Z,18.30
2022-11-17T03:06:11.738Z,16.53
2022-11-17T03:08:49.366Z,21.00
2022-11-17T03:11:14.717Z,18.77
2022-11-17T03:13:47.707Z,17.03
2022-11-17T03:16:25.917Z,15.43
2022-11-17T03:19:03.431Z,19.50
2022-11-17T03:21:32.915Z,17.30
2022-11-17T03:24:05.107Z,17.13
2022-11-17T03:26:34.908Z,17.77
2022-11-17T03:29:03.562Z,17.37
2022-11-17T03:31:29.483Z,17.13
2022-11-17T03:33:54.001Z,16.70
2022-11-17T03:36:22.582Z,15.47
2022-11-17T03:38:54.242Z,18.57
2022-11-17T03:41:21.372Z,18.50
2022-11-17T03:43:48.544Z,18.60
2022-11-17T03:46:17.382Z,16.63
2022-11-17T03:48:48.295Z,18.30
2022-11-17T03:51:16.115Z,19.23
2022-11-17T03:53:39.625Z,20.83
2022-11-17T03:56:14.682Z,17.90
2022-11-17T03:58:47.258Z,15.40
2022-11-17T04:01:12.813Z,17.93
2022-11-17T04:03:38.395Z,20.47
2022-11-17T04:06:02.231Z,16.27
2022-11-17T04:08:29.554Z,18.90
2022-11-17T04:11:10.833Z,16.57
2022-11-17T04:14:03.334Z,18.73
2022-11-17T04:16:28.410Z,16.93
2022-11-17T04:18:55.904Z,18.17
2022-11-17T04:21:22.413Z,17.10
2022-11-17T04:23:45.979Z,13.93
2022-11-17T04:26:28.286Z,17.33
2022-11-17T04:28:52.522Z,19.50
2022-11-17T04:31:18.043Z,18.87
2022-11-17T04:33:45.378Z,18.53
2022-11-17T04:36:10.083Z,20.77
2022-11-17T04:38:33.812Z,19.80
2022-11-17T04:41:23.997Z,14.33
2022-11-17T04:43:48.001Z,19.17
2022-11-17T04:46:11.533Z,21.03
2022-11-17T04:48:35.139Z,18.30
2022-11-17T04:51:00.151Z,20.33
2022-11-17T04:53:24.761Z,18.87
2022-11-17T04:55:48.419Z,22.20
2022-11-17T04:58:12.058Z,22.90
2022-11-17T05:00:35.609Z,20.80
2022-11-17T05:02:59.245Z,23.23
2022-11-17T05:05:22.750Z,18.10
2022-11-17T05:07:47.728Z,19.03
2022-11-17T05:10:13.926Z,20.13
2022-11-17T05:12:54.714Z,20.70
2022-11-17T05:15:38.394Z,18.93
2022-11-17T05:18:00.947Z,20.57
2022-11-17T05:20:24.504Z,20.10
2022-11-17T05:23:07.238Z,20.30
2022-11-17T05:25:30.870Z,20.03
2022-11-17T05:27:55.135Z,20.03
2022-11-17T05:30:18.842Z,21.40
2022-11-17T05:32:42.382Z,20.03
2022-11-17T05:35:07.089Z,21.13
2022-11-17T05:37:30.860Z,21.47
2022-11-17T05:39:55.934Z,19.70
2022-11-17T05:42:19.525Z,22.33
2022-11-17T05:44:43.284Z,22.10
2022-11-17T05:47:07.003Z,22.07
2022-11-17T05:49:30.734Z,19.00
2022-11-17T05:51:54.408Z,18.77
2022-11-17T05:54:18.165Z,18.33
2022-11-17T05:56:46.942Z,20.87
2022-11-17T05:59:24.728Z,22.37
2022-11-17T06:01:57.978Z,13.00
2022-11-17T06:04:21.928Z,22.77
2022-11-17T06:06:46.706Z,14.60
2022-11-17T06:09:10.338Z,21.10
2022-11-17T06:11:33.845Z,19.90
2022-11-17T06:13:58.866Z,21.67
2022-11-17T06:16:26.099Z,20.23
2022-11-17T06:18:55.503Z,24.00
2022-11-17T06:21:19.636Z,21.03
2022-11-17T06:23:44.315Z,22.20
2022-11-17T06:26:10.742Z,21.03
2022-11-17T06:28:36.721Z,22.20
2022-11-17T06:31:02.225Z,21.87
2022-11-17T06:33:26.074Z,21.77
2022-11-17T06:35:50.761Z,18.60
2022-11-17T06:38:14.394Z,21.07
2022-11-17T06:40:38.026Z,24.70
2022-11-17T06:43:10.620Z,21.07
2022-11-17T06:45:35.002Z,23.90
2022-11-17T06:47:59.938Z,23.47
2022-11-17T06:50:23.734Z,22.37
2022-11-17T06:52:47.329Z,24.47
2022-11-17T06:55:11.346Z,21.77
2022-11-17T06:57:35.007Z,22.50
2022-11-17T06:59:58.591Z,22.70
2022-11-17T07:02:22.121Z,23.33
2022-11-17T07:04:47.095Z,19.50
2022-11-17T07:07:11.210Z,21.83
2022-11-17T07:09:34.836Z,24.93
2022-11-17T07:11:58.862Z,22.37
2022-11-17T07:14:22.458Z,19.80
2022-11-17T07:16:46.032Z,23.43
2022-11-17T07:19:09.896Z,22.90
2022-11-17T07:21:34.839Z,18.97
2022-11-17T07:23:58.539Z,22.00
2022-11-17T07:26:22.129Z,21.60
2022-11-17T07:28:45.767Z,23.50
2022-11-17T07:31:10.800Z,19.40
2022-11-17T07:33:34.704Z,22.17
2022-11-17T07:36:02.689Z,15.47
2022-11-17T07:38:27.673Z,22.07
2022-11-17T07:40:51.358Z,18.33
2022-11-17T07:43:14.896Z,19.93
2022-11-17T07:45:38.741Z,19.03
2022-11-17T07:48:06.998Z,20.97
2022-11-17T07:50:30.918Z,18.83
2022-11-17T07:52:58.212Z,19.20
2022-11-17T07:55:24.131Z,17.90
2022-11-17T07:57:47.806Z,19.43
2022-11-17T08:00:13.580Z,21.50
2022-11-17T08:02:37.140Z,19.67
2022-11-17T08:05:00.651Z,17.10
2022-11-17T08:07:24.547Z,18.87
2022-11-17T08:09:48.113Z,20.63
2022-11-17T08:12:13.063Z,18.67
2022-11-17T08:14:36.570Z,18.10
2022-11-17T08:17:00.148Z,16.97
2022-11-17T08:19:23.657Z,19.73
2022-11-17T08:21:47.659Z,18.60
2022-11-17T08:24:13.274Z,21.13
2022-11-17T08:26:36.862Z,19.20
2022-11-17T08:29:02.116Z,21.27
2022-11-17T08:31:25.964Z,18.77
2022-11-17T08:33:49.540Z,21.00
2022-11-17T08:36:13.147Z,20.53
2022-11-17T08:38:37.239Z,22.47
2022-11-17T08:41:04.164Z,20.40
2022-11-17T08:43:27.782Z,19.90
2022-11-17T08:45:52.908Z,20.77
2022-11-17T08:48:16.470Z,24.03
2022-11-17T08:50:40.168Z,23.70
2022-11-17T08:53:03.693Z,17.07
2022-11-17T08:55:27.485Z,22.57
2022-11-17T08:57:51.040Z,15.67
2022-11-17T09:00:16.393Z,22.17
2022-11-17T09:02:41.561Z,12.67
2022-11-17T09:05:05.758Z,22.67
2022-11-17T09:07:34.550Z,21.33
2022-11-17T09:09:58.426Z,24.53
2022-11-17T09:12:21.965Z,21.27
2022-11-17T09:14:45.653Z,18.97
2022-11-17T09:17:09.710Z,23.15
2022-11-17T09:19:34.817Z,22.57
2022-11-17T09:21:58.441Z,22.83
2022-11-17T09:24:22.245Z,22.77
2022-11-17T09:26:45.847Z,21.60
2022-11-17T09:29:10.090Z,24.80
2022-11-17T09:31:33.684Z,22.80
2022-11-17T09:34:00.840Z,21.57
2022-11-17T09:36:28.831Z,23.30
2022-11-17T09:38:52.410Z,21.70
2022-11-17T09:41:28.931Z,23.33
2022-11-17T09:44:03.777Z,23.73
2022-11-17T09:46:44.428Z,27.00
2022-11-17T09:49:18.844Z,24.90
2022-11-17T09:51:46.467Z,22.90
2022-11-17T09:54:21.009Z,16.83
2022-11-17T09:56:47.787Z,24.33
2022-11-17T09:59:15.330Z,24.13
2022-11-17T10:01:39.209Z,25.30
2022-11-17T10:04:02.816Z,25.30
2022-11-17T10:06:28.885Z,26.03
2022-11-17T10:09:01.924Z,20.70
2022-11-17T10:11:34.164Z,24.07
2022-11-17T10:13:58.074Z,23.50
2022-11-17T10:16:21.679Z,21.73
2022-11-17T10:18:45.279Z,22.90
2022-11-17T10:21:10.256Z,22.50
2022-11-17T10:23:42.845Z,26.00
2022-11-17T10:26:14.318Z,23.93
2022-11-17T10:28:38.077Z,15.73
2022-11-17T10:31:04.740Z,15.87
2022-11-17T10:33:38.039Z,20.47
2022-11-17T10:36:02.102Z,22.10
2022-11-17T10:38:29.578Z,25.40
2022-11-17T10:40:54.859Z,21.92
2022-11-17T10:43:25.838Z,25.50
2022-11-17T10:45:51.841Z,20.80
2022-11-17T10:48:26.730Z,18.47
2022-11-17T10:50:56.186Z,23.37
2022-11-17T10:53:29.976Z,23.52
2022-11-17T10:56:05.331Z,19.93
2022-11-17T10:58:32.168Z,18.80
2022-11-17T11:00:58.498Z,16.40
2022-11-17T11:03:25.921Z,23.50
2022-11-17T11:06:16.223Z,20.02
2022-11-17T11:08:52.639Z,20.10
2022-11-17T11:11:42.630Z,19.60
2022-11-17T11:14:17.507Z,23.97
2022-11-17T11:16:47.661Z,21.33
2022-11-17T11:19:16.707Z,20.97
2022-11-17T11:22:23.421Z,18.47
2022-11-17T11:24:53.073Z,20.13
2022-11-17T11:27:47.274Z,20.80
2022-11-17T11:30:15.850Z,20.33
2022-11-17T11:32:56.330Z,20.13
2022-11-17T11:35:50.657Z,18.47
2022-11-17T11:38:42.489Z,18.50
2022-11-17T11:41:25.073Z,18.83
2022-11-17T11:44:03.931Z,21.17
2022-11-17T11:46:43.447Z,16.65
2022-11-17T11:49:17.689Z,19.70
2022-11-17T11:51:41.465Z,22.10
2022-11-17T11:54:13.602Z,21.85
2022-11-17T11:56:40.807Z,18.63
2022-11-17T11:59:08.818Z,15.00
2022-11-17T12:01:46.335Z,16.63
2022-11-17T12:04:26.662Z,17.63
2022-11-17T12:06:57.388Z,19.63
2022-11-17T12:09:54.545Z,18.15
2022-11-17T12:12:21.908Z,19.27
2022-11-17T12:15:14.163Z,17.57
2022-11-17T12:17:39.585Z,18.20
2022-11-17T12:20:10.916Z,20.93
2022-11-17T12:23:08.616Z,19.53
2022-11-17T12:25:36.108Z,22.33
2022-11-17T12:27:59.785Z,18.20
2022-11-17T12:30:53.830Z,17.63
2022-11-17T12:33:18.856Z,17.20
2022-11-17T12:35:42.465Z,16.75
2022-11-17T12:38:42.852Z,20.35
2022-11-17T12:41:07.333Z,19.30
2022-11-17T12:43:32.150Z,15.73
2022-11-17T12:46:08.308Z,19.00
2022-11-17T12:48:36.843Z,16.63
2022-11-17T12:51:09.100Z,13.63
2022-11-17T12:53:57.699Z,19.93
2022-11-17T12:57:00.037Z,20.92
2022-11-17T12:59:53.044Z,18.93
2022-11-17T13:02:48.900Z,12.75
2022-11-17T13:05:19.243Z,15.00
2022-11-17T13:07:42.856Z,20.53
2022-11-17T13:10:07.292Z,20.50
2022-11-17T13:12:32.640Z,17.30
2022-11-17T13:14:58.078Z,17.60
2022-11-17T13:17:24.192Z,17.70
2022-11-17T13:19:48.097Z,20.20
2022-11-17T13:22:19.733Z,25.40
2022-11-17T13:24:45.866Z,19.20
2022-11-17T13:27:23.197Z,18.77
2022-11-17T13:29:47.044Z,17.57
2022-11-17T13:32:20.296Z,17.80
2022-11-17T13:34:48.791Z,24.90
2022-11-17T13:37:20.149Z,18.37
2022-11-17T13:39:56.850Z,18.63
2022-11-17T13:42:23.519Z,20.00
2022-11-17T13:44:47.470Z,17.20
2022-11-17T13:47:21.641Z,19.23
2022-11-17T13:49:45.349Z,17.43
2022-11-17T13:52:37.979Z,23.40
2022-11-17T13:55:08.037Z,17.97
2022-11-17T13:57:32.467Z,20.57
2022-11-17T13:59:57.088Z,19.37
2022-11-17T14:02:29.543Z,20.23
2022-11-17T14:05:23.824Z,20.60
2022-11-17T14:07:50.669Z,22.80
2022-11-17T14:10:16.257Z,17.40
2022-11-17T14:12:39.804Z,20.47
2022-11-17T14:15:03.553Z,18.93
2022-11-17T14:17:27.191Z,18.17
2022-11-17T14:19:50.977Z,19.23
2022-11-17T14:22:32.502Z,22.27
2022-11-17T14:24:57.526Z,20.00
2022-11-17T14:27:43.431Z,14.67
2022-11-17T14:30:08.624Z,19.03
2022-11-17T14:32:34.735Z,20.20
2022-11-17T14:34:59.576Z,16.90
2022-11-17T14:37:23.125Z,28.60
2022-11-17T14:39:46.740Z,22.47
2022-11-17T14:42:12.243Z,21.37
2022-11-17T14:44:35.830Z,19.58
2022-11-17T14:46:59.371Z,17.63
2022-11-17T14:49:22.931Z,18.90
2022-11-17T14:51:49.965Z,17.17
2022-11-17T14:54:13.592Z,22.03
2022-11-17T14:56:37.110Z,25.07
2022-11-17T14:59:02.408Z,19.23
2022-11-17T15:01:30.417Z,22.50
2022-11-17T15:03:55.311Z,21.37
2022-11-17T15:06:20.371Z,19.97
2022-11-17T15:08:44.960Z,21.87
2022-11-17T15:11:08.615Z,21.20
2022-11-17T15:13:32.371Z,23.50
2022-11-17T15:16:04.206Z,23.77
2022-11-17T15:18:27.879Z,22.83
2022-11-17T15:21:02.059Z,23.17
2022-11-17T15:23:25.704Z,26.60
2022-11-17T15:25:49.211Z,21.38
2022-11-17T15:28:18.925Z,25.13
2022-11-17T15:30:44.998Z,27.73
2022-11-17T15:33:09.921Z,28.53
2022-11-17T15:35:33.571Z,28.30
2022-11-17T15:37:57.069Z,24.73
2022-11-17T15:40:20.669Z,28.47
2022-11-17T15:42:44.217Z,23.90
2022-11-17T15:45:09.460Z,26.30
2022-11-17T15:47:33.466Z,25.70
2022-11-17T15:49:59.065Z,26.53
2022-11-17T15:52:41.739Z,26.80
2022-11-17T15:55:07.232Z,22.43
2022-11-17T15:57:30.748Z,25.40
2022-11-17T15:59:54.530Z,27.17
2022-11-17T16:02:19.388Z,25.90
2022-11-17T16:04:43.154Z,27.33
2022-11-17T16:07:08.263Z,24.27
2022-11-17T16:09:31.952Z,27.07
2022-11-17T16:11:55.510Z,27.10
2022-11-17T16:14:19.127Z,26.43
2022-11-17T16:16:43.855Z,27.03
2022-11-17T16:19:08.284Z,28.43
2022-11-17T16:21:31.874Z,25.57
2022-11-17T16:24:00.545Z,26.50
2022-11-17T16:26:26.082Z,27.60
2022-11-17T16:28:49.865Z,29.93
2022-11-17T16:31:16.201Z,26.10
2022-11-17T16:33:39.783Z,28.70
2022-11-17T16:36:06.399Z,25.40
2022-11-17T16:38:30.028Z,27.27
2022-11-17T16:40:55.018Z,23.53
2022-11-17T16:43:18.633Z,26.03
2022-11-17T16:45:45.025Z,26.63
2022-11-17T16:48:09.223Z,25.23
2022-11-17T16:50:32.755Z,27.33
2022-11-17T16:52:56.365Z,22.43
2022-11-17T16:55:19.943Z,28.90
2022-11-17T16:57:45.566Z,26.70
2022-11-17T17:00:11.328Z,29.03
2022-11-17T17:02:35.031Z,27.80
2022-11-17T17:04:58.535Z,29.93
2022-11-17T17:07:22.179Z,26.70
2022-11-17T17:09:45.869Z,28.60
2022-11-17T17:12:09.545Z,30.27
2022-11-17T17:14:34.444Z,28.43
2022-11-17T17:16:58.102Z,28.70
2022-11-17T17:19:21.680Z,24.57
2022-11-17T17:21:46.032Z,29.73
2022-11-17T17:24:11.025Z,27.00
2022-11-17T17:26:35.974Z,28.30
2022-11-17T17:29:01.351Z,31.80
2022-11-17T17:31:30.640Z,25.07
2022-11-17T17:33:56.144Z,32.10
2022-11-17T17:36:21.701Z,28.43
2022-11-17T17:38:50.123Z,29.10
2022-11-17T17:41:18.905Z,27.30
2022-11-17T17:43:43.711Z,32.23
2022-11-17T17:46:15.327Z,32.27
2022-11-17T17:48:42.680Z,31.73
2022-11-17T17:51:09.605Z,26.33
2022-11-17T17:53:33.572Z,27.10
2022-11-17T17:56:01.483Z,30.57
2022-11-17T17:58:25.077Z,31.83
2022-11-17T18:00:49.823Z,34.17
2022-11-17T18:03:13.493Z,33.30
2022-11-17T18:05:38.439Z,36.47
2022-11-17T18:08:02.057Z,34.57
2022-11-17T18:10:25.649Z,32.00
2022-11-17T18:12:49.289Z,30.23
2022-11-17T18:15:13.239Z,36.57
2022-11-17T18:17:36.910Z,35.20
2022-11-17T18:20:00.566Z,36.53
2022-11-17T18:22:25.561Z,32.07
2022-11-17T18:24:49.088Z,40.53
2022-11-17T18:27:12.715Z,32.90
2022-11-17T18:29:36.271Z,33.67
2022-11-17T18:31:59.861Z,33.93
2022-11-17T18:34:25.350Z,36.50
2022-11-17T18:36:49.209Z,37.33
2022-11-17T18:39:15.127Z,40.87
2022-11-17T18:41:38.996Z,37.63
2022-11-17T18:44:02.919Z,36.37
2022-11-17T18:46:30.033Z,37.87
2022-11-17T18:48:56.000Z,35.73
2022-11-17T18:51:21.963Z,42.27
2022-11-17T18:53:45.784Z,24.13
2022-11-17T18:56:13.667Z,37.53
2022-11-17T18:58:37.694Z,37.40
2022-11-17T19:01:08.243Z,39.43
2022-11-17T19:03:31.917Z,37.27
2022-11-17T19:05:55.433Z,38.57
2022-11-17T19:08:19.124Z,41.37
2022-11-17T19:10:51.354Z,36.10
2022-11-17T19:13:16.307Z,38.60
2022-11-17T19:15:39.803Z,35.73
2022-11-17T19:18:03.429Z,34.30
2022-11-17T19:20:27.236Z,39.77
2022-11-17T19:22:50.829Z,37.87
2022-11-17T19:25:14.515Z,31.97
2022-11-17T19:27:38.103Z,32.67
2022-11-17T19:30:03.017Z,37.20
2022-11-17T19:32:26.620Z,39.07
2022-11-17T19:34:51.805Z,32.50
2022-11-17T19:37:15.727Z,34.33
2022-11-17T19:39:39.307Z,36.57
2022-11-17T19:42:02.950Z,36.67
2022-11-17T19:44:26.464Z,33.93
2022-11-17T19:46:51.395Z,36.87
2022-11-17T19:49:15.411Z,35.77
2022-11-17T19:51:39.823Z,35.40
2022-11-17T19:54:05.537Z,39.67
2022-11-17T19:56:29.444Z,41.03
2022-11-17T19:58:53.764Z,39.83
2022-11-17T20:01:19.571Z,40.67
2022-11-17T20:03:45.218Z,40.43
2022-11-17T20:06:10.136Z,38.97
2022-11-17T20:08:34.388Z,35.80
2022-11-17T20:11:05.198Z,41.50
2022-11-17T20:13:30.946Z,39.03
2022-11-17T20:15:57.806Z,37.73
2022-11-17T20:18:21.381Z,40.90
2022-11-17T20:20:46.354Z,35.80
2022-11-17T20:23:10.052Z,41.57
2022-11-17T20:25:33.600Z,38.40
2022-11-17T20:27:57.313Z,36.50
2022-11-17T20:30:21.010Z,38.33
2022-11-17T20:32:44.747Z,40.40
2022-11-17T20:35:09.310Z,40.83
2022-11-17T20:37:34.297Z,40.07
2022-11-17T20:39:57.925Z,30.20
2022-11-17T20:42:21.590Z,39.23
2022-11-17T20:44:45.495Z,46.83
2022-11-17T20:47:09.079Z,35.40
2022-11-17T20:49:32.660Z,44.87
2022-11-17T20:51:56.192Z,38.40
2022-11-17T20:54:21.121Z,38.10
2022-11-17T20:56:45.221Z,35.60
2022-11-17T20:59:08.982Z,37.40
2022-11-17T21:01:32.785Z,39.07
2022-11-17T21:03:56.327Z,39.67
2022-11-17T21:06:23.052Z,36.53
2022-11-17T21:08:47.459Z,37.53
2022-11-17T21:11:35.789Z,32.43
2022-11-17T21:13:59.773Z,34.03
2022-11-17T21:16:23.290Z,36.20
2022-11-17T21:18:49.078Z,36.83
2022-11-17T21:21:12.675Z,34.30
2022-11-17T21:23:36.286Z,37.50
2022-11-17T21:26:04.406Z,28.97
2022-11-17T21:28:29.344Z,36.40
2022-11-17T21:30:53.098Z,35.77
2022-11-17T21:33:16.935Z,33.80
2022-11-17T21:35:40.492Z,34.40
2022-11-17T21:38:04.147Z,37.63
2022-11-17T21:40:27.683Z,35.63
2022-11-17T21:42:51.264Z,40.33
2022-11-17T21:45:16.276Z,31.43
2022-11-17T21:47:39.864Z,34.97
2022-11-17T21:50:03.429Z,34.27
2022-11-17T21:52:27.149Z,33.57
2022-11-17T21:54:50.741Z,35.03
2022-11-17T21:57:14.410Z,32.53
2022-11-17T21:59:37.959Z,31.47
2022-11-17T22:02:03.133Z,32.90
2022-11-17T22:04:26.647Z,36.17
2022-11-17T22:06:50.242Z,33.23
2022-11-17T22:09:14.318Z,35.07
2022-11-17T22:11:39.167Z,31.20
2022-11-17T22:14:05.548Z,34.13
2022-11-17T22:16:29.114Z,32.10
2022-11-17T22:18:53.981Z,27.83
2022-11-17T22:21:17.573Z,40.60
2022-11-17T22:23:41.495Z,35.80
2022-11-17T22:26:07.870Z,29.10
2022-11-17T22:28:32.177Z,35.53
2022-11-17T22:30:56.562Z,33.10
2022-11-17T22:33:20.413Z,34.20
2022-11-17T22:35:45.429Z,35.23
2022-11-17T22:38:08.978Z,37.77
2022-11-17T22:40:32.563Z,41.03
2022-11-17T22:42:56.073Z,32.80
2022-11-17T22:45:19.636Z,36.17
2022-11-17T22:47:43.188Z,36.73
2022-11-17T22:50:07.965Z,37.40
2022-11-17T22:52:32.864Z,36.53
2022-11-17T22:54:56.409Z,29.23
2022-11-17T22:57:19.950Z,35.53
2022-11-17T22:59:43.539Z,34.90
2022-11-17T23:02:07.047Z,34.53
2022-11-17T23:04:30.651Z,36.40
2022-11-17T23:06:54.262Z,31.87
2022-11-17T23:09:19.406Z,35.90
2022-11-17T23:11:43.690Z,36.07
2022-11-17T23:14:10.704Z,36.77
2022-11-17T23:16:34.263Z,34.70
2022-11-17T23:18:58.840Z,35.53
2022-11-17T23:21:22.747Z,27.47
2022-11-17T23:23:46.339Z,34.70
2022-11-17T23:26:13.524Z,36.60
2022-11-17T23:28:37.443Z,40.47
2022-11-17T23:31:01.502Z,31.20
2022-11-17T23:33:25.100Z,40.93
2022-11-17T23:35:48.671Z,36.40
2022-11-17T23:38:12.244Z,37.87
2022-11-17T23:40:35.748Z,36.47
2022-11-17T23:43:00.720Z,42.33
2022-11-17T23:45:24.237Z,35.60
2022-11-17T23:47:47.855Z,42.93
2022-11-17T23:50:11.601Z,36.63
2022-11-17T23:52:35.201Z,39.87
2022-11-17T23:54:58.800Z,43.37
2022-11-17T23:57:22.387Z,37.70
2022-11-17T23:59:47.294Z,38.03
